sensor_id;sensor_type;location;lat;lon;timestamp;temperature;humidity
56044;DHT22;41912;51.022;3.664;2023-10-19T00:01:58;17.50;99.90
56044;DHT22;41912;51.022;3.664;2023-10-19T00:04:27;17.50;99.90
56044;DHT22;41912;51.022;3.664;2023-10-19T00:06:57;17.50;99.90
56044;DHT22;41912;51.022;3.664;2023-10-19T00:09:23;17.50;99.90
56044;DHT22;41912;51.022;3.664;2023-10-19T00:11:49;17.50;99.90
56044;DHT22;41912;51.022;3.664;2023-10-19T00:14:17;17.50;99.90
56044;DHT22;41912;51.022;3.664;2023-10-19T00:16:44;17.50;99.90
56044;DHT22;41912;51.022;3.664;2023-10-19T00:19:16;17.50;99.90
56044;DHT22;41912;51.022;3.664;2023-10-19T00:21:45;17.50;99.90
56044;DHT22;41912;51.022;3.664;2023-10-19T00:24:20;17.50;99.90
56044;DHT22;41912;51.022;3.664;2023-10-19T00:26:47;17.40;99.90
56044;DHT22;41912;51.022;3.664;2023-10-19T00:29:20;17.40;99.90
56044;DHT22;41912;51.022;3.664;2023-10-19T00:32:05;17.40;99.90
56044;DHT22;41912;51.022;3.664;2023-10-19T00:34:32;17.40;99.90
56044;DHT22;41912;51.022;3.664;2023-10-19T00:36:59;17.40;99.90
56044;DHT22;41912;51.022;3.664;2023-10-19T00:39:34;17.30;99.90
56044;DHT22;41912;51.022;3.664;2023-10-19T00:42:08;17.30;99.90
56044;DHT22;41912;51.022;3.664;2023-10-19T00:44:34;17.30;99.90
56044;DHT22;41912;51.022;3.664;2023-10-19T00:47:14;17.40;99.90
56044;DHT22;41912;51.022;3.664;2023-10-19T00:49:47;17.30;99.90
56044;DHT22;41912;51.022;3.664;2023-10-19T00:52:14;17.30;99.90
56044;DHT22;41912;51.022;3.664;2023-10-19T00:54:50;17.30;99.90
56044;DHT22;41912;51.022;3.664;2023-10-19T00:57:18;17.30;99.90
56044;DHT22;41912;51.022;3.664;2023-10-19T00:59:57;17.30;99.90
56044;DHT22;41912;51.022;3.664;2023-10-19T01:02:39;17.30;99.90
56044;DHT22;41912;51.022;3.664;2023-10-19T01:05:18;17.30;99.90
56044;DHT22;41912;51.022;3.664;2023-10-19T01:07:47;17.30;99.90
56044;DHT22;41912;51.022;3.664;2023-10-19T01:10:18;17.30;99.90
56044;DHT22;41912;51.022;3.664;2023-10-19T01:12:47;17.30;99.90
56044;DHT22;41912;51.022;3.664;2023-10-19T01:15:15;17.30;99.90
56044;DHT22;41912;51.022;3.664;2023-10-19T01:17:55;17.10;99.90
56044;DHT22;41912;51.022;3.664;2023-10-19T01:20:31;17.20;99.90
56044;DHT22;41912;51.022;3.664;2023-10-19T01:23:02;17.20;99.90
56044;DHT22;41912;51.022;3.664;2023-10-19T01:25:50;17.20;99.90
56044;DHT22;41912;51.022;3.664;2023-10-19T01:28:33;17.20;99.90
56044;DHT22;41912;51.022;3.664;2023-10-19T01:31:09;17.20;99.90
56044;DHT22;41912;51.022;3.664;2023-10-19T01:33:40;17.20;99.90
56044;DHT22;41912;51.022;3.664;2023-10-19T01:36:11;17.20;99.90
56044;DHT22;41912;51.022;3.664;2023-10-19T01:38:40;17.20;99.90
56044;DHT22;41912;51.022;3.664;2023-10-19T01:41:09;17.20;99.90
56044;DHT22;41912;51.022;3.664;2023-10-19T01:43:44;17.20;99.90
56044;DHT22;41912;51.022;3.664;2023-10-19T01:46:11;17.20;99.90
56044;DHT22;41912;51.022;3.664;2023-10-19T01:48:43;17.20;99.90
56044;DHT22;41912;51.022;3.664;2023-10-19T01:51:11;17.20;99.90
56044;DHT22;41912;51.022;3.664;2023-10-19T01:53:38;17.20;99.90
56044;DHT22;41912;51.022;3.664;2023-10-19T01:56:11;17.20;99.90
56044;DHT22;41912;51.022;3.664;2023-10-19T01:58:38;17.10;99.90
56044;DHT22;41912;51.022;3.664;2023-10-19T02:01:05;17.10;99.90
56044;DHT22;41912;51.022;3.664;2023-10-19T02:03:40;17.10;99.90
56044;DHT22;41912;51.022;3.664;2023-10-19T02:06:10;17.10;99.90
56044;DHT22;41912;51.022;3.664;2023-10-19T02:08:48;17.10;99.90
56044;DHT22;41912;51.022;3.664;2023-10-19T02:11:23;17.10;99.90
56044;DHT22;41912;51.022;3.664;2023-10-19T02:13:51;17.10;99.90
56044;DHT22;41912;51.022;3.664;2023-10-19T02:16:18;17.00;99.90
56044;DHT22;41912;51.022;3.664;2023-10-19T02:18:48;17.00;99.90
56044;DHT22;41912;51.022;3.664;2023-10-19T02:21:15;17.00;99.90
56044;DHT22;41912;51.022;3.664;2023-10-19T02:23:47;17.00;99.90
56044;DHT22;41912;51.022;3.664;2023-10-19T02:26:16;17.00;99.90
56044;DHT22;41912;51.022;3.664;2023-10-19T02:28:42;17.00;99.90
56044;DHT22;41912;51.022;3.664;2023-10-19T02:31:09;17.00;99.90
56044;DHT22;41912;51.022;3.664;2023-10-19T02:33:42;17.00;99.90
56044;DHT22;41912;51.022;3.664;2023-10-19T02:36:38;17.00;99.90
56044;DHT22;41912;51.022;3.664;2023-10-19T02:39:06;17.00;99.90
56044;DHT22;41912;51.022;3.664;2023-10-19T02:41:36;17.00;99.90
56044;DHT22;41912;51.022;3.664;2023-10-19T02:44:09;17.00;99.90
56044;DHT22;41912;51.022;3.664;2023-10-19T02:46:52;17.00;99.90
56044;DHT22;41912;51.022;3.664;2023-10-19T02:49:23;17.00;99.90
56044;DHT22;41912;51.022;3.664;2023-10-19T02:51:52;17.00;99.90
56044;DHT22;41912;51.022;3.664;2023-10-19T02:54:22;17.00;99.90
56044;DHT22;41912;51.022;3.664;2023-10-19T02:56:52;17.00;99.90
56044;DHT22;41912;51.022;3.664;2023-10-19T02:59:22;17.00;99.90
56044;DHT22;41912;51.022;3.664;2023-10-19T03:01:52;16.80;99.90
56044;DHT22;41912;51.022;3.664;2023-10-19T03:04:18;17.00;99.90
56044;DHT22;41912;51.022;3.664;2023-10-19T03:06:44;17.00;99.90
56044;DHT22;41912;51.022;3.664;2023-10-19T03:09:10;17.00;99.90
56044;DHT22;41912;51.022;3.664;2023-10-19T03:11:43;16.90;99.90
56044;DHT22;41912;51.022;3.664;2023-10-19T03:14:11;16.90;99.90
56044;DHT22;41912;51.022;3.664;2023-10-19T03:16:38;16.90;99.90
56044;DHT22;41912;51.022;3.664;2023-10-19T03:19:06;17.00;99.90
56044;DHT22;41912;51.022;3.664;2023-10-19T03:21:33;17.00;99.90
56044;DHT22;41912;51.022;3.664;2023-10-19T03:24:07;17.00;99.90
56044;DHT22;41912;51.022;3.664;2023-10-19T03:26:38;17.00;99.90
56044;DHT22;41912;51.022;3.664;2023-10-19T03:29:05;17.00;99.90
56044;DHT22;41912;51.022;3.664;2023-10-19T03:31:38;17.00;99.90
56044;DHT22;41912;51.022;3.664;2023-10-19T03:34:11;17.00;99.90
56044;DHT22;41912;51.022;3.664;2023-10-19T03:36:38;17.00;99.90
56044;DHT22;41912;51.022;3.664;2023-10-19T03:39:04;16.90;99.90
56044;DHT22;41912;51.022;3.664;2023-10-19T03:41:40;16.90;99.90
56044;DHT22;41912;51.022;3.664;2023-10-19T03:44:10;17.00;99.90
56044;DHT22;41912;51.022;3.664;2023-10-19T03:46:58;16.90;99.90
56044;DHT22;41912;51.022;3.664;2023-10-19T03:49:29;16.90;99.90
56044;DHT22;41912;51.022;3.664;2023-10-19T03:52:04;16.90;99.90
56044;DHT22;41912;51.022;3.664;2023-10-19T03:54:37;16.90;99.90
56044;DHT22;41912;51.022;3.664;2023-10-19T03:57:16;16.90;99.90
56044;DHT22;41912;51.022;3.664;2023-10-19T03:59:46;16.90;99.90
56044;DHT22;41912;51.022;3.664;2023-10-19T04:02:15;17.00;99.90
56044;DHT22;41912;51.022;3.664;2023-10-19T04:04:47;16.90;99.90
56044;DHT22;41912;51.022;3.664;2023-10-19T04:07:16;16.90;99.90
56044;DHT22;41912;51.022;3.664;2023-10-19T04:09:54;16.90;99.90
56044;DHT22;41912;51.022;3.664;2023-10-19T04:12:35;16.90;99.90
56044;DHT22;41912;51.022;3.664;2023-10-19T04:15:04;16.90;99.90
56044;DHT22;41912;51.022;3.664;2023-10-19T04:17:35;16.90;99.90
56044;DHT22;41912;51.022;3.664;2023-10-19T04:20:02;17.00;99.90
56044;DHT22;41912;51.022;3.664;2023-10-19T04:22:40;17.00;99.90
56044;DHT22;41912;51.022;3.664;2023-10-19T04:25:06;16.90;99.90
56044;DHT22;41912;51.022;3.664;2023-10-19T04:27:32;17.00;99.90
56044;DHT22;41912;51.022;3.664;2023-10-19T04:30:01;17.00;99.90
56044;DHT22;41912;51.022;3.664;2023-10-19T04:32:27;17.00;99.90
56044;DHT22;41912;51.022;3.664;2023-10-19T04:34:53;16.90;99.90
56044;DHT22;41912;51.022;3.664;2023-10-19T04:37:19;16.90;99.90
56044;DHT22;41912;51.022;3.664;2023-10-19T04:39:45;16.90;99.90
56044;DHT22;41912;51.022;3.664;2023-10-19T04:42:11;16.90;99.90
56044;DHT22;41912;51.022;3.664;2023-10-19T04:44:37;16.90;99.90
56044;DHT22;41912;51.022;3.664;2023-10-19T04:47:03;16.90;99.90
56044;DHT22;41912;51.022;3.664;2023-10-19T04:49:28;16.90;99.90
56044;DHT22;41912;51.022;3.664;2023-10-19T04:51:54;16.90;99.90
56044;DHT22;41912;51.022;3.664;2023-10-19T04:54:20;16.90;99.90
56044;DHT22;41912;51.022;3.664;2023-10-19T04:56:45;16.90;99.90
56044;DHT22;41912;51.022;3.664;2023-10-19T04:59:11;16.90;99.90
56044;DHT22;41912;51.022;3.664;2023-10-19T05:01:37;16.90;99.90
56044;DHT22;41912;51.022;3.664;2023-10-19T05:04:03;16.90;99.90
56044;DHT22;41912;51.022;3.664;2023-10-19T05:06:28;17.00;99.90
56044;DHT22;41912;51.022;3.664;2023-10-19T05:08:54;17.00;99.90
56044;DHT22;41912;51.022;3.664;2023-10-19T05:11:20;17.00;99.90
56044;DHT22;41912;51.022;3.664;2023-10-19T05:13:46;17.00;99.90
56044;DHT22;41912;51.022;3.664;2023-10-19T05:16:11;16.90;99.90
56044;DHT22;41912;51.022;3.664;2023-10-19T05:18:37;16.90;99.90
56044;DHT22;41912;51.022;3.664;2023-10-19T05:21:04;16.90;99.90
56044;DHT22;41912;51.022;3.664;2023-10-19T05:23:30;16.90;99.90
56044;DHT22;41912;51.022;3.664;2023-10-19T05:26:03;16.90;99.90
56044;DHT22;41912;51.022;3.664;2023-10-19T05:28:30;17.00;99.90
56044;DHT22;41912;51.022;3.664;2023-10-19T05:30:56;17.00;99.90
56044;DHT22;41912;51.022;3.664;2023-10-19T05:33:22;17.00;99.90
56044;DHT22;41912;51.022;3.664;2023-10-19T05:35:49;17.00;99.90
56044;DHT22;41912;51.022;3.664;2023-10-19T05:38:16;17.00;99.90
56044;DHT22;41912;51.022;3.664;2023-10-19T05:40:42;17.00;99.90
56044;DHT22;41912;51.022;3.664;2023-10-19T05:43:11;17.00;99.90
56044;DHT22;41912;51.022;3.664;2023-10-19T05:45:37;17.00;99.90
56044;DHT22;41912;51.022;3.664;2023-10-19T05:48:03;17.00;99.90
56044;DHT22;41912;51.022;3.664;2023-10-19T05:50:32;17.00;99.90
56044;DHT22;41912;51.022;3.664;2023-10-19T05:52:58;17.00;99.90
56044;DHT22;41912;51.022;3.664;2023-10-19T05:55:23;17.00;99.90
56044;DHT22;41912;51.022;3.664;2023-10-19T05:57:49;17.00;99.90
56044;DHT22;41912;51.022;3.664;2023-10-19T06:00:15;17.00;99.90
56044;DHT22;41912;51.022;3.664;2023-10-19T06:02:46;17.00;99.90
56044;DHT22;41912;51.022;3.664;2023-10-19T06:05:13;17.00;99.90
56044;DHT22;41912;51.022;3.664;2023-10-19T06:07:41;17.00;99.90
56044;DHT22;41912;51.022;3.664;2023-10-19T06:10:08;17.00;99.90
56044;DHT22;41912;51.022;3.664;2023-10-19T06:12:34;16.90;99.90
56044;DHT22;41912;51.022;3.664;2023-10-19T06:15:00;16.90;99.90
56044;DHT22;41912;51.022;3.664;2023-10-19T06:17:28;16.90;99.90
56044;DHT22;41912;51.022;3.664;2023-10-19T06:19:54;17.00;99.90
56044;DHT22;41912;51.022;3.664;2023-10-19T06:22:21;16.90;99.90
56044;DHT22;41912;51.022;3.664;2023-10-19T06:24:46;16.90;99.90
56044;DHT22;41912;51.022;3.664;2023-10-19T06:27:12;16.90;99.90
56044;DHT22;41912;51.022;3.664;2023-10-19T06:29:38;17.10;99.90
56044;DHT22;41912;51.022;3.664;2023-10-19T06:32:04;16.90;99.90
56044;DHT22;41912;51.022;3.664;2023-10-19T06:34:29;16.90;99.90
56044;DHT22;41912;51.022;3.664;2023-10-19T06:36:55;16.90;99.90
56044;DHT22;41912;51.022;3.664;2023-10-19T06:39:21;16.90;99.90
56044;DHT22;41912;51.022;3.664;2023-10-19T06:41:47;16.90;99.90
56044;DHT22;41912;51.022;3.664;2023-10-19T06:44:13;16.90;99.90
56044;DHT22;41912;51.022;3.664;2023-10-19T06:46:39;16.90;99.90
56044;DHT22;41912;51.022;3.664;2023-10-19T06:49:05;16.90;99.90
56044;DHT22;41912;51.022;3.664;2023-10-19T06:51:31;16.90;99.90
56044;DHT22;41912;51.022;3.664;2023-10-19T06:53:58;16.90;99.90
56044;DHT22;41912;51.022;3.664;2023-10-19T06:56:24;16.90;99.90
56044;DHT22;41912;51.022;3.664;2023-10-19T06:58:50;16.90;99.90
56044;DHT22;41912;51.022;3.664;2023-10-19T07:01:16;16.90;99.90
56044;DHT22;41912;51.022;3.664;2023-10-19T07:03:43;17.00;99.90
56044;DHT22;41912;51.022;3.664;2023-10-19T07:06:09;17.00;99.90
56044;DHT22;41912;51.022;3.664;2023-10-19T07:08:39;17.00;99.90
56044;DHT22;41912;51.022;3.664;2023-10-19T07:11:06;17.00;99.90
56044;DHT22;41912;51.022;3.664;2023-10-19T07:13:32;17.00;99.90
56044;DHT22;41912;51.022;3.664;2023-10-19T07:15:59;17.00;99.90
56044;DHT22;41912;51.022;3.664;2023-10-19T07:18:24;17.00;99.90
56044;DHT22;41912;51.022;3.664;2023-10-19T07:20:51;17.00;99.90
56044;DHT22;41912;51.022;3.664;2023-10-19T07:23:18;17.00;99.90
56044;DHT22;41912;51.022;3.664;2023-10-19T07:25:48;17.00;99.90
56044;DHT22;41912;51.022;3.664;2023-10-19T07:28:18;17.00;99.90
56044;DHT22;41912;51.022;3.664;2023-10-19T07:30:45;17.00;99.90
56044;DHT22;41912;51.022;3.664;2023-10-19T07:33:12;17.00;99.90
56044;DHT22;41912;51.022;3.664;2023-10-19T07:35:46;17.00;99.90
56044;DHT22;41912;51.022;3.664;2023-10-19T07:38:15;17.00;99.90
56044;DHT22;41912;51.022;3.664;2023-10-19T07:40:42;17.00;99.90
56044;DHT22;41912;51.022;3.664;2023-10-19T07:43:09;17.00;99.90
56044;DHT22;41912;51.022;3.664;2023-10-19T07:45:35;17.00;99.90
56044;DHT22;41912;51.022;3.664;2023-10-19T07:48:02;17.00;99.90
56044;DHT22;41912;51.022;3.664;2023-10-19T07:50:38;17.00;99.90
56044;DHT22;41912;51.022;3.664;2023-10-19T07:53:06;17.00;99.90
56044;DHT22;41912;51.022;3.664;2023-10-19T07:55:32;17.10;99.90
56044;DHT22;41912;51.022;3.664;2023-10-19T07:57:58;17.10;99.90
56044;DHT22;41912;51.022;3.664;2023-10-19T08:00:28;17.10;99.90
56044;DHT22;41912;51.022;3.664;2023-10-19T08:03:01;17.10;99.90
56044;DHT22;41912;51.022;3.664;2023-10-19T08:05:27;17.10;99.90
56044;DHT22;41912;51.022;3.664;2023-10-19T08:07:53;17.10;99.90
56044;DHT22;41912;51.022;3.664;2023-10-19T08:10:20;17.10;99.90
56044;DHT22;41912;51.022;3.664;2023-10-19T08:12:47;17.20;99.90
56044;DHT22;41912;51.022;3.664;2023-10-19T08:15:14;17.20;99.90
56044;DHT22;41912;51.022;3.664;2023-10-19T08:17:44;17.30;99.90
56044;DHT22;41912;51.022;3.664;2023-10-19T08:20:11;17.30;99.90
56044;DHT22;41912;51.022;3.664;2023-10-19T08:22:54;17.40;99.90
56044;DHT22;41912;51.022;3.664;2023-10-19T08:25:22;17.40;99.90
56044;DHT22;41912;51.022;3.664;2023-10-19T08:27:48;17.40;99.90
56044;DHT22;41912;51.022;3.664;2023-10-19T08:30:19;17.40;99.90
56044;DHT22;41912;51.022;3.664;2023-10-19T08:32:46;17.40;99.90
56044;DHT22;41912;51.022;3.664;2023-10-19T08:35:16;17.50;99.90
56044;DHT22;41912;51.022;3.664;2023-10-19T08:37:49;17.40;99.90
56044;DHT22;41912;51.022;3.664;2023-10-19T08:40:15;17.40;99.90
56044;DHT22;41912;51.022;3.664;2023-10-19T08:42:43;17.50;99.90
56044;DHT22;41912;51.022;3.664;2023-10-19T08:45:11;17.50;99.90
56044;DHT22;41912;51.022;3.664;2023-10-19T08:47:44;17.50;99.90
56044;DHT22;41912;51.022;3.664;2023-10-19T08:50:14;17.50;99.90
56044;DHT22;41912;51.022;3.664;2023-10-19T08:52:41;17.60;99.90
56044;DHT22;41912;51.022;3.664;2023-10-19T08:55:08;17.60;99.90
56044;DHT22;41912;51.022;3.664;2023-10-19T08:57:37;17.80;99.90
56044;DHT22;41912;51.022;3.664;2023-10-19T09:00:04;17.60;99.90
56044;DHT22;41912;51.022;3.664;2023-10-19T09:02:32;17.70;99.90
56044;DHT22;41912;51.022;3.664;2023-10-19T09:04:58;17.70;99.90
56044;DHT22;41912;51.022;3.664;2023-10-19T09:07:25;17.80;99.90
56044;DHT22;41912;51.022;3.664;2023-10-19T09:09:56;17.70;99.90
56044;DHT22;41912;51.022;3.664;2023-10-19T09:12:24;17.80;99.90
56044;DHT22;41912;51.022;3.664;2023-10-19T09:14:49;17.70;99.90
56044;DHT22;41912;51.022;3.664;2023-10-19T09:17:15;17.80;99.90
56044;DHT22;41912;51.022;3.664;2023-10-19T09:19:45;17.80;99.90
56044;DHT22;41912;51.022;3.664;2023-10-19T09:22:14;17.80;99.90
56044;DHT22;41912;51.022;3.664;2023-10-19T09:24:49;17.80;99.90
56044;DHT22;41912;51.022;3.664;2023-10-19T09:27:18;17.80;99.90
56044;DHT22;41912;51.022;3.664;2023-10-19T09:29:44;17.90;99.90
56044;DHT22;41912;51.022;3.664;2023-10-19T09:32:10;17.90;99.90
56044;DHT22;41912;51.022;3.664;2023-10-19T09:34:40;17.90;99.90
56044;DHT22;41912;51.022;3.664;2023-10-19T09:37:09;17.90;99.90
56044;DHT22;41912;51.022;3.664;2023-10-19T09:39:35;18.00;99.90
56044;DHT22;41912;51.022;3.664;2023-10-19T09:44:34;18.10;99.90
56044;DHT22;41912;51.022;3.664;2023-10-19T09:47:11;18.10;99.90
56044;DHT22;41912;51.022;3.664;2023-10-19T09:49:40;18.10;99.90
56044;DHT22;41912;51.022;3.664;2023-10-19T09:52:08;18.10;99.90
56044;DHT22;41912;51.022;3.664;2023-10-19T09:57:16;18.20;99.90
56044;DHT22;41912;51.022;3.664;2023-10-19T09:59:46;18.20;99.90
56044;DHT22;41912;51.022;3.664;2023-10-19T10:02:13;18.20;99.90
56044;DHT22;41912;51.022;3.664;2023-10-19T10:04:40;18.20;99.90
56044;DHT22;41912;51.022;3.664;2023-10-19T10:07:07;18.20;99.90
56044;DHT22;41912;51.022;3.664;2023-10-19T10:09:36;18.20;99.90
56044;DHT22;41912;51.022;3.664;2023-10-19T10:12:25;18.20;99.90
56044;DHT22;41912;51.022;3.664;2023-10-19T10:15:05;18.20;99.90
56044;DHT22;41912;51.022;3.664;2023-10-19T10:17:36;18.20;99.90
56044;DHT22;41912;51.022;3.664;2023-10-19T10:22:39;18.20;99.90
56044;DHT22;41912;51.022;3.664;2023-10-19T10:25:07;18.20;99.90
56044;DHT22;41912;51.022;3.664;2023-10-19T10:27:36;18.20;99.90
56044;DHT22;41912;51.022;3.664;2023-10-19T10:30:04;18.20;99.90
56044;DHT22;41912;51.022;3.664;2023-10-19T10:32:51;18.20;99.90
56044;DHT22;41912;51.022;3.664;2023-10-19T10:38:09;18.20;99.90
56044;DHT22;41912;51.022;3.664;2023-10-19T10:40:49;18.20;99.90
56044;DHT22;41912;51.022;3.664;2023-10-19T10:43:15;18.20;99.90
56044;DHT22;41912;51.022;3.664;2023-10-19T10:45:42;18.20;99.90
56044;DHT22;41912;51.022;3.664;2023-10-19T10:48:15;18.20;99.90
56044;DHT22;41912;51.022;3.664;2023-10-19T10:50:41;18.20;99.90
56044;DHT22;41912;51.022;3.664;2023-10-19T10:53:09;18.20;99.90
56044;DHT22;41912;51.022;3.664;2023-10-19T10:55:36;18.20;99.90
56044;DHT22;41912;51.022;3.664;2023-10-19T10:58:02;18.10;99.90
56044;DHT22;41912;51.022;3.664;2023-10-19T11:00:28;18.10;99.90
56044;DHT22;41912;51.022;3.664;2023-10-19T11:03:06;18.10;99.90
56044;DHT22;41912;51.022;3.664;2023-10-19T11:05:38;18.10;99.90
56044;DHT22;41912;51.022;3.664;2023-10-19T11:08:16;18.20;99.90
56044;DHT22;41912;51.022;3.664;2023-10-19T11:10:45;18.30;99.90
56044;DHT22;41912;51.022;3.664;2023-10-19T11:13:15;18.40;99.90
56044;DHT22;41912;51.022;3.664;2023-10-19T11:15:52;18.50;99.90
56044;DHT22;41912;51.022;3.664;2023-10-19T11:18:51;18.50;99.90
56044;DHT22;41912;51.022;3.664;2023-10-19T11:21:17;18.60;99.90
56044;DHT22;41912;51.022;3.664;2023-10-19T11:23:47;18.60;99.90
56044;DHT22;41912;51.022;3.664;2023-10-19T11:26:16;18.70;99.90
56044;DHT22;41912;51.022;3.664;2023-10-19T11:28:42;18.70;99.90
56044;DHT22;41912;51.022;3.664;2023-10-19T11:31:19;18.70;99.90
56044;DHT22;41912;51.022;3.664;2023-10-19T11:33:46;18.70;99.90
56044;DHT22;41912;51.022;3.664;2023-10-19T11:36:14;18.80;99.90
56044;DHT22;41912;51.022;3.664;2023-10-19T11:38:44;18.70;99.90
56044;DHT22;41912;51.022;3.664;2023-10-19T11:41:11;18.70;99.90
56044;DHT22;41912;51.022;3.664;2023-10-19T11:43:39;18.70;99.90
56044;DHT22;41912;51.022;3.664;2023-10-19T11:46:04;18.80;99.90
56044;DHT22;41912;51.022;3.664;2023-10-19T11:48:34;18.80;99.90
56044;DHT22;41912;51.022;3.664;2023-10-19T11:51:02;18.80;99.90
56044;DHT22;41912;51.022;3.664;2023-10-19T11:53:35;18.90;99.90
56044;DHT22;41912;51.022;3.664;2023-10-19T11:56:06;18.90;99.90
56044;DHT22;41912;51.022;3.664;2023-10-19T11:58:33;19.00;99.90
56044;DHT22;41912;51.022;3.664;2023-10-19T12:01:01;19.00;99.90
56044;DHT22;41912;51.022;3.664;2023-10-19T12:03:26;19.00;99.90
56044;DHT22;41912;51.022;3.664;2023-10-19T12:05:53;19.10;99.90
56044;DHT22;41912;51.022;3.664;2023-10-19T12:08:19;19.10;99.90
56044;DHT22;41912;51.022;3.664;2023-10-19T12:10:45;19.20;99.90
56044;DHT22;41912;51.022;3.664;2023-10-19T12:13:10;19.20;99.90
56044;DHT22;41912;51.022;3.664;2023-10-19T12:15:37;19.20;99.90
56044;DHT22;41912;51.022;3.664;2023-10-19T12:18:03;19.20;99.90
56044;DHT22;41912;51.022;3.664;2023-10-19T12:20:29;19.20;99.90
56044;DHT22;41912;51.022;3.664;2023-10-19T12:22:58;19.10;99.90
56044;DHT22;41912;51.022;3.664;2023-10-19T12:25:24;19.10;99.90
56044;DHT22;41912;51.022;3.664;2023-10-19T12:27:58;19.10;99.90
56044;DHT22;41912;51.022;3.664;2023-10-19T12:30:24;19.10;99.90
56044;DHT22;41912;51.022;3.664;2023-10-19T12:32:52;19.10;99.90
56044;DHT22;41912;51.022;3.664;2023-10-19T12:35:18;19.10;99.90
56044;DHT22;41912;51.022;3.664;2023-10-19T12:37:55;19.10;99.90
56044;DHT22;41912;51.022;3.664;2023-10-19T12:40:21;19.20;99.90
56044;DHT22;41912;51.022;3.664;2023-10-19T12:42:55;19.20;99.90
56044;DHT22;41912;51.022;3.664;2023-10-19T12:45:24;19.20;99.90
56044;DHT22;41912;51.022;3.664;2023-10-19T12:47:51;19.20;99.90
56044;DHT22;41912;51.022;3.664;2023-10-19T12:50:21;19.20;99.90
56044;DHT22;41912;51.022;3.664;2023-10-19T12:52:50;19.20;99.90
56044;DHT22;41912;51.022;3.664;2023-10-19T12:55:19;19.30;99.90
56044;DHT22;41912;51.022;3.664;2023-10-19T12:57:45;19.30;99.90
56044;DHT22;41912;51.022;3.664;2023-10-19T13:00:11;19.40;99.90
56044;DHT22;41912;51.022;3.664;2023-10-19T13:02:49;19.50;99.90
56044;DHT22;41912;51.022;3.664;2023-10-19T13:05:16;19.60;99.90
56044;DHT22;41912;51.022;3.664;2023-10-19T13:07:44;19.70;99.90
56044;DHT22;41912;51.022;3.664;2023-10-19T13:10:10;19.70;99.90
56044;DHT22;41912;51.022;3.664;2023-10-19T13:12:37;19.70;99.90
56044;DHT22;41912;51.022;3.664;2023-10-19T13:15:04;19.70;99.90
56044;DHT22;41912;51.022;3.664;2023-10-19T13:17:36;19.70;99.90
56044;DHT22;41912;51.022;3.664;2023-10-19T13:20:02;19.80;99.90
56044;DHT22;41912;51.022;3.664;2023-10-19T13:22:43;19.70;99.90
56044;DHT22;41912;51.022;3.664;2023-10-19T13:25:10;19.80;99.90
56044;DHT22;41912;51.022;3.664;2023-10-19T13:27:39;19.80;99.90
56044;DHT22;41912;51.022;3.664;2023-10-19T13:30:07;19.70;99.90
56044;DHT22;41912;51.022;3.664;2023-10-19T13:32:36;19.70;99.90
56044;DHT22;41912;51.022;3.664;2023-10-19T13:35:02;19.80;99.90
56044;DHT22;41912;51.022;3.664;2023-10-19T13:37:28;19.80;99.90
56044;DHT22;41912;51.022;3.664;2023-10-19T13:39:53;19.50;99.90
56044;DHT22;41912;51.022;3.664;2023-10-19T13:42:20;19.70;99.90
56044;DHT22;41912;51.022;3.664;2023-10-19T13:44:47;19.80;99.90
56044;DHT22;41912;51.022;3.664;2023-10-19T13:47:12;19.80;99.90
56044;DHT22;41912;51.022;3.664;2023-10-19T13:49:38;19.80;99.90
56044;DHT22;41912;51.022;3.664;2023-10-19T13:52:04;19.90;99.90
56044;DHT22;41912;51.022;3.664;2023-10-19T13:54:30;20.10;99.90
56044;DHT22;41912;51.022;3.664;2023-10-19T13:56:56;20.20;99.90
56044;DHT22;41912;51.022;3.664;2023-10-19T13:59:21;20.20;99.90
56044;DHT22;41912;51.022;3.664;2023-10-19T14:01:49;20.30;99.90
56044;DHT22;41912;51.022;3.664;2023-10-19T14:04:15;20.30;99.90
56044;DHT22;41912;51.022;3.664;2023-10-19T14:06:41;20.30;99.90
56044;DHT22;41912;51.022;3.664;2023-10-19T14:09:08;20.40;99.90
56044;DHT22;41912;51.022;3.664;2023-10-19T14:11:38;20.40;99.90
56044;DHT22;41912;51.022;3.664;2023-10-19T14:14:03;20.40;99.90
56044;DHT22;41912;51.022;3.664;2023-10-19T14:16:30;20.40;99.90
56044;DHT22;41912;51.022;3.664;2023-10-19T14:18:56;20.40;99.90
56044;DHT22;41912;51.022;3.664;2023-10-19T14:21:22;20.40;99.90
56044;DHT22;41912;51.022;3.664;2023-10-19T14:23:52;20.40;99.90
56044;DHT22;41912;51.022;3.664;2023-10-19T14:26:18;20.40;99.90
56044;DHT22;41912;51.022;3.664;2023-10-19T14:28:44;20.40;99.90
56044;DHT22;41912;51.022;3.664;2023-10-19T14:31:10;20.30;99.90
56044;DHT22;41912;51.022;3.664;2023-10-19T14:33:39;20.20;99.90
56044;DHT22;41912;51.022;3.664;2023-10-19T14:36:05;20.20;99.90
56044;DHT22;41912;51.022;3.664;2023-10-19T14:38:31;20.20;99.90
56044;DHT22;41912;51.022;3.664;2023-10-19T14:40:57;20.30;99.90
56044;DHT22;41912;51.022;3.664;2023-10-19T14:43:23;20.30;99.90
56044;DHT22;41912;51.022;3.664;2023-10-19T14:45:51;20.30;99.90
56044;DHT22;41912;51.022;3.664;2023-10-19T14:48:16;20.40;99.90
56044;DHT22;41912;51.022;3.664;2023-10-19T14:50:44;20.30;99.90
56044;DHT22;41912;51.022;3.664;2023-10-19T14:53:10;20.30;99.90
56044;DHT22;41912;51.022;3.664;2023-10-19T14:55:37;20.30;99.90
56044;DHT22;41912;51.022;3.664;2023-10-19T14:58:03;20.30;99.90
56044;DHT22;41912;51.022;3.664;2023-10-19T15:00:31;20.30;99.90
56044;DHT22;41912;51.022;3.664;2023-10-19T15:03:03;20.30;99.90
56044;DHT22;41912;51.022;3.664;2023-10-19T15:05:32;20.30;99.90
56044;DHT22;41912;51.022;3.664;2023-10-19T15:08:02;20.30;99.90
56044;DHT22;41912;51.022;3.664;2023-10-19T15:10:30;20.40;99.90
56044;DHT22;41912;51.022;3.664;2023-10-19T15:12:57;20.40;99.90
56044;DHT22;41912;51.022;3.664;2023-10-19T15:15:25;20.40;99.90
56044;DHT22;41912;51.022;3.664;2023-10-19T15:17:51;20.40;99.90
56044;DHT22;41912;51.022;3.664;2023-10-19T15:20:19;20.40;99.90
56044;DHT22;41912;51.022;3.664;2023-10-19T15:22:46;20.40;99.90
56044;DHT22;41912;51.022;3.664;2023-10-19T15:25:13;20.40;99.90
56044;DHT22;41912;51.022;3.664;2023-10-19T15:27:41;20.40;99.90
56044;DHT22;41912;51.022;3.664;2023-10-19T15:30:08;20.40;99.90
56044;DHT22;41912;51.022;3.664;2023-10-19T15:32:35;20.40;99.90
56044;DHT22;41912;51.022;3.664;2023-10-19T15:35:02;20.30;99.90
56044;DHT22;41912;51.022;3.664;2023-10-19T15:37:28;20.30;99.90
56044;DHT22;41912;51.022;3.664;2023-10-19T15:39:53;20.30;99.90
56044;DHT22;41912;51.022;3.664;2023-10-19T15:42:19;20.30;99.90
56044;DHT22;41912;51.022;3.664;2023-10-19T15:44:50;20.30;99.90
56044;DHT22;41912;51.022;3.664;2023-10-19T15:47:16;20.20;99.90
56044;DHT22;41912;51.022;3.664;2023-10-19T15:52:21;20.20;99.90
56044;DHT22;41912;51.022;3.664;2023-10-19T15:54:48;20.20;99.90